sensor_id;sensor_type;location;lat;lon;timestamp;P1;durP1;ratioP1;P2;durP2;ratioP2
26223;SDS011;14820;48.682;8.890;2022-09-14T00:01:08;1.63;;;1.52;;
26223;SDS011;14820;48.682;8.890;2022-09-14T00:03:36;2.38;;;1.45;;
26223;SDS011;14820;48.682;8.890;2022-09-14T00:06:04;2.58;;;1.80;;
26223;SDS011;14820;48.682;8.890;2022-09-14T00:08:31;3.90;;;1.52;;
26223;SDS011;14820;48.682;8.890;2022-09-14T00:10:57;3.60;;;1.83;;
26223;SDS011;14820;48.682;8.890;2022-09-14T00:13:23;3.70;;;1.77;;
26223;SDS011;14820;48.682;8.890;2022-09-14T00:15:48;3.33;;;1.92;;
26223;SDS011;14820;48.682;8.890;2022-09-14T00:18:16;2.13;;;1.67;;
26223;SDS011;14820;48.682;8.890;2022-09-14T00:20:42;2.80;;;1.92;;
26223;SDS011;14820;48.682;8.890;2022-09-14T00:23:08;3.70;;;1.77;;
26223;SDS011;14820;48.682;8.890;2022-09-14T00:25:33;3.78;;;1.90;;
26223;SDS011;14820;48.682;8.890;2022-09-14T00:27:59;2.20;;;1.85;;
26223;SDS011;14820;48.682;8.890;2022-09-14T00:30:25;2.53;;;1.75;;
26223;SDS011;14820;48.682;8.890;2022-09-14T00:32:52;4.20;;;1.77;;
26223;SDS011;14820;48.682;8.890;2022-09-14T00:35:17;2.13;;;1.58;;
26223;SDS011;14820;48.682;8.890;2022-09-14T00:37:43;5.40;;;1.77;;
26223;SDS011;14820;48.682;8.890;2022-09-14T00:40:12;2.30;;;2.10;;
26223;SDS011;14820;48.682;8.890;2022-09-14T00:42:37;6.53;;;1.70;;
26223;SDS011;14820;48.682;8.890;2022-09-14T00:45:05;2.47;;;1.65;;
26223;SDS011;14820;48.682;8.890;2022-09-14T00:47:38;3.85;;;1.92;;
26223;SDS011;14820;48.682;8.890;2022-09-14T00:50:04;6.60;;;1.90;;
26223;SDS011;14820;48.682;8.890;2022-09-14T00:52:31;3.90;;;2.00;;
26223;SDS011;14820;48.682;8.890;2022-09-14T00:55:01;3.17;;;1.77;;
26223;SDS011;14820;48.682;8.890;2022-09-14T00:57:31;2.35;;;2.05;;
26223;SDS011;14820;48.682;8.890;2022-09-14T01:00:01;3.72;;;2.00;;
26223;SDS011;14820;48.682;8.890;2022-09-14T01:02:28;2.75;;;1.83;;
26223;SDS011;14820;48.682;8.890;2022-09-14T01:04:54;4.43;;;2.30;;
26223;SDS011;14820;48.682;8.890;2022-09-14T01:10:17;3.35;;;1.75;;
26223;SDS011;14820;48.682;8.890;2022-09-14T01:15:40;5.70;;;2.10;;
26223;SDS011;14820;48.682;8.890;2022-09-14T01:21:07;5.22;;;2.33;;
26223;SDS011;14820;48.682;8.890;2022-09-14T01:23:53;4.03;;;2.00;;
26223;SDS011;14820;48.682;8.890;2022-09-14T01:29:14;3.60;;;2.28;;
26223;SDS011;14820;48.682;8.890;2022-09-14T01:34:22;6.00;;;2.45;;
26223;SDS011;14820;48.682;8.890;2022-09-14T01:36:53;7.35;;;2.55;;
26223;SDS011;14820;48.682;8.890;2022-09-14T01:39:30;5.20;;;2.42;;
26223;SDS011;14820;48.682;8.890;2022-09-14T01:41:59;5.95;;;2.45;;
26223;SDS011;14820;48.682;8.890;2022-09-14T01:44:30;7.82;;;2.50;;
26223;SDS011;14820;48.682;8.890;2022-09-14T01:47:21;5.78;;;2.47;;
26223;SDS011;14820;48.682;8.890;2022-09-14T01:49:52;5.38;;;2.88;;
26223;SDS011;14820;48.682;8.890;2022-09-14T01:52:24;5.72;;;2.40;;
26223;SDS011;14820;48.682;8.890;2022-09-14T01:54:56;3.92;;;2.80;;
26223;SDS011;14820;48.682;8.890;2022-09-14T01:59:52;3.75;;;2.53;;
26223;SDS011;14820;48.682;8.890;2022-09-14T02:02:24;5.45;;;2.28;;
26223;SDS011;14820;48.682;8.890;2022-09-14T02:05:11;3.63;;;2.58;;
26223;SDS011;14820;48.682;8.890;2022-09-14T02:07:44;4.30;;;2.30;;
26223;SDS011;14820;48.682;8.890;2022-09-14T02:10:10;4.97;;;2.55;;
26223;SDS011;14820;48.682;8.890;2022-09-14T02:12:39;3.95;;;2.50;;
26223;SDS011;14820;48.682;8.890;2022-09-14T02:15:05;4.85;;;2.53;;
26223;SDS011;14820;48.682;8.890;2022-09-14T02:17:33;4.70;;;2.70;;
26223;SDS011;14820;48.682;8.890;2022-09-14T02:19:59;4.28;;;2.50;;
26223;SDS011;14820;48.682;8.890;2022-09-14T02:22:28;6.32;;;2.65;;
26223;SDS011;14820;48.682;8.890;2022-09-14T02:24:55;3.58;;;2.50;;
26223;SDS011;14820;48.682;8.890;2022-09-14T02:27:21;8.32;;;2.50;;
26223;SDS011;14820;48.682;8.890;2022-09-14T02:29:47;7.10;;;2.80;;
26223;SDS011;14820;48.682;8.890;2022-09-14T02:32:17;3.63;;;2.60;;
26223;SDS011;14820;48.682;8.890;2022-09-14T02:35:25;6.10;;;2.97;;
26223;SDS011;14820;48.682;8.890;2022-09-14T02:38:19;10.70;;;3.35;;
26223;SDS011;14820;48.682;8.890;2022-09-14T02:40:51;5.97;;;2.55;;
26223;SDS011;14820;48.682;8.890;2022-09-14T02:43:33;3.45;;;2.67;;
26223;SDS011;14820;48.682;8.890;2022-09-14T02:49:05;3.20;;;2.47;;
26223;SDS011;14820;48.682;8.890;2022-09-14T02:54:33;4.60;;;2.85;;
26223;SDS011;14820;48.682;8.890;2022-09-14T02:57:01;6.40;;;3.10;;
26223;SDS011;14820;48.682;8.890;2022-09-14T02:59:28;6.78;;;2.90;;
26223;SDS011;14820;48.682;8.890;2022-09-14T03:01:54;5.30;;;2.50;;
26223;SDS011;14820;48.682;8.890;2022-09-14T03:04:20;4.18;;;2.72;;
26223;SDS011;14820;48.682;8.890;2022-09-14T03:06:46;4.90;;;2.88;;
26223;SDS011;14820;48.682;8.890;2022-09-14T03:09:12;4.53;;;3.05;;
26223;SDS011;14820;48.682;8.890;2022-09-14T03:11:38;4.53;;;2.90;;
26223;SDS011;14820;48.682;8.890;2022-09-14T03:14:03;6.28;;;3.10;;
26223;SDS011;14820;48.682;8.890;2022-09-14T03:16:29;7.47;;;3.10;;
26223;SDS011;14820;48.682;8.890;2022-09-14T03:18:56;5.03;;;2.95;;
26223;SDS011;14820;48.682;8.890;2022-09-14T03:21:22;3.00;;;2.50;;
26223;SDS011;14820;48.682;8.890;2022-09-14T03:23:49;6.85;;;2.83;;
26223;SDS011;14820;48.682;8.890;2022-09-14T03:26:17;5.45;;;2.90;;
26223;SDS011;14820;48.682;8.890;2022-09-14T03:28:48;4.20;;;3.15;;
26223;SDS011;14820;48.682;8.890;2022-09-14T03:31:18;4.18;;;2.70;;
26223;SDS011;14820;48.682;8.890;2022-09-14T03:33:44;4.57;;;2.85;;
26223;SDS011;14820;48.682;8.890;2022-09-14T03:36:14;3.55;;;2.92;;
26223;SDS011;14820;48.682;8.890;2022-09-14T03:38:42;5.90;;;2.95;;
26223;SDS011;14820;48.682;8.890;2022-09-14T03:41:12;6.85;;;2.95;;
26223;SDS011;14820;48.682;8.890;2022-09-14T03:43:38;3.88;;;2.90;;
26223;SDS011;14820;48.682;8.890;2022-09-14T03:46:07;3.85;;;2.70;;
26223;SDS011;14820;48.682;8.890;2022-09-14T03:48:34;6.28;;;2.60;;
26223;SDS011;14820;48.682;8.890;2022-09-14T03:51:04;4.90;;;2.80;;
26223;SDS011;14820;48.682;8.890;2022-09-14T03:53:32;4.82;;;3.17;;
26223;SDS011;14820;48.682;8.890;2022-09-14T03:55:58;4.63;;;3.10;;
26223;SDS011;14820;48.682;8.890;2022-09-14T03:58:24;5.72;;;3.20;;
26223;SDS011;14820;48.682;8.890;2022-09-14T04:00:50;5.03;;;2.85;;
26223;SDS011;14820;48.682;8.890;2022-09-14T04:03:16;4.85;;;3.03;;
26223;SDS011;14820;48.682;8.890;2022-09-14T04:05:42;5.38;;;3.20;;
26223;SDS011;14820;48.682;8.890;2022-09-14T04:08:09;4.15;;;2.97;;
26223;SDS011;14820;48.682;8.890;2022-09-14T04:10:37;5.32;;;2.95;;
26223;SDS011;14820;48.682;8.890;2022-09-14T04:13:03;3.65;;;2.78;;
26223;SDS011;14820;48.682;8.890;2022-09-14T04:15:29;4.28;;;3.00;;
26223;SDS011;14820;48.682;8.890;2022-09-14T04:17:54;6.70;;;3.03;;
26223;SDS011;14820;48.682;8.890;2022-09-14T04:20:20;3.53;;;3.03;;
26223;SDS011;14820;48.682;8.890;2022-09-14T04:22:46;7.57;;;3.22;;
26223;SDS011;14820;48.682;8.890;2022-09-14T04:25:12;3.53;;;2.78;;
26223;SDS011;14820;48.682;8.890;2022-09-14T04:27:38;3.85;;;2.85;;
26223;SDS011;14820;48.682;8.890;2022-09-14T04:30:04;5.22;;;3.08;;
26223;SDS011;14820;48.682;8.890;2022-09-14T04:32:30;5.50;;;3.10;;
26223;SDS011;14820;48.682;8.890;2022-09-14T04:34:56;5.53;;;3.40;;
26223;SDS011;14820;48.682;8.890;2022-09-14T04:37:22;9.23;;;3.30;;
26223;SDS011;14820;48.682;8.890;2022-09-14T04:39:47;6.60;;;3.50;;
26223;SDS011;14820;48.682;8.890;2022-09-14T04:42:13;6.80;;;3.25;;
26223;SDS011;14820;48.682;8.890;2022-09-14T04:44:39;4.60;;;3.40;;
26223;SDS011;14820;48.682;8.890;2022-09-14T04:47:04;7.38;;;3.40;;
26223;SDS011;14820;48.682;8.890;2022-09-14T04:49:30;5.70;;;3.50;;
26223;SDS011;14820;48.682;8.890;2022-09-14T04:51:56;5.70;;;3.40;;
26223;SDS011;14820;48.682;8.890;2022-09-14T04:54:21;5.50;;;3.60;;
26223;SDS011;14820;48.682;8.890;2022-09-14T04:56:47;4.80;;;3.67;;
26223;SDS011;14820;48.682;8.890;2022-09-14T04:59:13;9.60;;;3.90;;
26223;SDS011;14820;48.682;8.890;2022-09-14T05:01:41;5.47;;;3.92;;
26223;SDS011;14820;48.682;8.890;2022-09-14T05:04:09;7.22;;;3.47;;
26223;SDS011;14820;48.682;8.890;2022-09-14T05:06:36;7.75;;;3.67;;
26223;SDS011;14820;48.682;8.890;2022-09-14T05:09:04;5.35;;;4.03;;
26223;SDS011;14820;48.682;8.890;2022-09-14T05:11:41;6.28;;;4.07;;
26223;SDS011;14820;48.682;8.890;2022-09-14T05:14:08;3.92;;;3.45;;
26223;SDS011;14820;48.682;8.890;2022-09-14T05:16:36;7.40;;;3.80;;
26223;SDS011;14820;48.682;8.890;2022-09-14T05:19:04;5.28;;;3.65;;
26223;SDS011;14820;48.682;8.890;2022-09-14T05:21:33;5.82;;;3.45;;
26223;SDS011;14820;48.682;8.890;2022-09-14T05:24:01;7.85;;;3.70;;
26223;SDS011;14820;48.682;8.890;2022-09-14T05:26:29;5.32;;;3.60;;
26223;SDS011;14820;48.682;8.890;2022-09-14T05:28:56;6.07;;;3.80;;
26223;SDS011;14820;48.682;8.890;2022-09-14T05:31:24;5.18;;;3.60;;
26223;SDS011;14820;48.682;8.890;2022-09-14T05:33:51;11.00;;;4.10;;
26223;SDS011;14820;48.682;8.890;2022-09-14T05:36:17;6.65;;;4.20;;
26223;SDS011;14820;48.682;8.890;2022-09-14T05:38:43;7.80;;;4.38;;
26223;SDS011;14820;48.682;8.890;2022-09-14T05:41:10;6.63;;;3.90;;
26223;SDS011;14820;48.682;8.890;2022-09-14T05:43:37;9.02;;;3.78;;
26223;SDS011;14820;48.682;8.890;2022-09-14T05:46:04;8.13;;;4.38;;
26223;SDS011;14820;48.682;8.890;2022-09-14T05:48:32;7.35;;;3.88;;
26223;SDS011;14820;48.682;8.890;2022-09-14T05:51:00;8.13;;;4.13;;
26223;SDS011;14820;48.682;8.890;2022-09-14T05:53:33;4.25;;;3.80;;
26223;SDS011;14820;48.682;8.890;2022-09-14T05:56:00;4.10;;;3.45;;
26223;SDS011;14820;48.682;8.890;2022-09-14T05:58:31;5.00;;;3.58;;
26223;SDS011;14820;48.682;8.890;2022-09-14T06:00:58;6.63;;;3.70;;
26223;SDS011;14820;48.682;8.890;2022-09-14T06:03:37;4.28;;;3.40;;
26223;SDS011;14820;48.682;8.890;2022-09-14T06:06:04;9.75;;;3.75;;
26223;SDS011;14820;48.682;8.890;2022-09-14T06:08:31;5.43;;;3.67;;
26223;SDS011;14820;48.682;8.890;2022-09-14T06:11:01;5.32;;;3.70;;
26223;SDS011;14820;48.682;8.890;2022-09-14T06:13:34;7.65;;;3.90;;
26223;SDS011;14820;48.682;8.890;2022-09-14T06:16:04;5.43;;;3.60;;
26223;SDS011;14820;48.682;8.890;2022-09-14T06:18:32;5.53;;;3.45;;
26223;SDS011;14820;48.682;8.890;2022-09-14T06:20:59;4.28;;;3.33;;
26223;SDS011;14820;48.682;8.890;2022-09-14T06:23:26;6.07;;;3.75;;
26223;SDS011;14820;48.682;8.890;2022-09-14T06:25:56;4.75;;;3.25;;
26223;SDS011;14820;48.682;8.890;2022-09-14T06:28:22;4.80;;;3.08;;
26223;SDS011;14820;48.682;8.890;2022-09-14T06:30:49;4.05;;;3.10;;
26223;SDS011;14820;48.682;8.890;2022-09-14T06:33:15;4.40;;;3.60;;
26223;SDS011;14820;48.682;8.890;2022-09-14T06:35:42;4.55;;;3.20;;
26223;SDS011;14820;48.682;8.890;2022-09-14T06:38:10;3.78;;;2.92;;
26223;SDS011;14820;48.682;8.890;2022-09-14T06:40:38;4.70;;;3.40;;
26223;SDS011;14820;48.682;8.890;2022-09-14T06:43:14;5.95;;;3.30;;
26223;SDS011;14820;48.682;8.890;2022-09-14T06:45:39;6.10;;;3.28;;
26223;SDS011;14820;48.682;8.890;2022-09-14T06:48:05;5.82;;;3.80;;
26223;SDS011;14820;48.682;8.890;2022-09-14T06:50:31;5.28;;;3.20;;
26223;SDS011;14820;48.682;8.890;2022-09-14T06:52:56;4.57;;;3.53;;
26223;SDS011;14820;48.682;8.890;2022-09-14T06:55:22;8.00;;;3.70;;
26223;SDS011;14820;48.682;8.890;2022-09-14T06:57:47;4.22;;;3.60;;
26223;SDS011;14820;48.682;8.890;2022-09-14T07:00:13;6.03;;;3.40;;
26223;SDS011;14820;48.682;8.890;2022-09-14T07:02:39;7.25;;;3.80;;
26223;SDS011;14820;48.682;8.890;2022-09-14T07:05:05;8.52;;;3.83;;
26223;SDS011;14820;48.682;8.890;2022-09-14T07:07:31;4.90;;;3.40;;
26223;SDS011;14820;48.682;8.890;2022-09-14T07:09:57;4.00;;;3.55;;
26223;SDS011;14820;48.682;8.890;2022-09-14T07:12:22;7.85;;;3.42;;
26223;SDS011;14820;48.682;8.890;2022-09-14T07:14:48;6.47;;;4.25;;
26223;SDS011;14820;48.682;8.890;2022-09-14T07:17:13;7.75;;;3.67;;
26223;SDS011;14820;48.682;8.890;2022-09-14T07:19:39;6.45;;;3.38;;
26223;SDS011;14820;48.682;8.890;2022-09-14T07:22:05;4.38;;;3.30;;
26223;SDS011;14820;48.682;8.890;2022-09-14T07:24:30;4.88;;;3.20;;
26223;SDS011;14820;48.682;8.890;2022-09-14T07:26:56;4.82;;;3.17;;
26223;SDS011;14820;48.682;8.890;2022-09-14T07:29:22;4.93;;;3.30;;
26223;SDS011;14820;48.682;8.890;2022-09-14T07:31:48;3.78;;;2.90;;
26223;SDS011;14820;48.682;8.890;2022-09-14T07:34:16;8.98;;;3.60;;
26223;SDS011;14820;48.682;8.890;2022-09-14T07:36:42;8.65;;;3.08;;
26223;SDS011;14820;48.682;8.890;2022-09-14T07:39:09;5.20;;;3.13;;
26223;SDS011;14820;48.682;8.890;2022-09-14T07:41:37;4.30;;;2.90;;
26223;SDS011;14820;48.682;8.890;2022-09-14T07:44:05;4.97;;;3.10;;
26223;SDS011;14820;48.682;8.890;2022-09-14T07:46:35;4.90;;;3.40;;
26223;SDS011;14820;48.682;8.890;2022-09-14T07:49:03;5.28;;;3.33;;
26223;SDS011;14820;48.682;8.890;2022-09-14T07:51:30;6.63;;;3.08;;
26223;SDS011;14820;48.682;8.890;2022-09-14T07:53:57;3.50;;;2.65;;
26223;SDS011;14820;48.682;8.890;2022-09-14T07:56:24;3.55;;;2.53;;
26223;SDS011;14820;48.682;8.890;2022-09-14T07:58:54;3.35;;;2.65;;
26223;SDS011;14820;48.682;8.890;2022-09-14T08:01:22;5.22;;;2.65;;
26223;SDS011;14820;48.682;8.890;2022-09-14T08:03:48;5.30;;;2.72;;
26223;SDS011;14820;48.682;8.890;2022-09-14T08:06:18;4.13;;;2.55;;
26223;SDS011;14820;48.682;8.890;2022-09-14T08:08:47;4.93;;;2.45;;
26223;SDS011;14820;48.682;8.890;2022-09-14T08:11:14;4.10;;;2.47;;
26223;SDS011;14820;48.682;8.890;2022-09-14T08:13:50;4.82;;;2.55;;
26223;SDS011;14820;48.682;8.890;2022-09-14T08:16:18;6.78;;;3.25;;
26223;SDS011;14820;48.682;8.890;2022-09-14T08:18:45;4.32;;;2.70;;
26223;SDS011;14820;48.682;8.890;2022-09-14T08:21:12;4.28;;;2.50;;
26223;SDS011;14820;48.682;8.890;2022-09-14T08:23:40;4.90;;;2.85;;
26223;SDS011;14820;48.682;8.890;2022-09-14T08:26:10;7.45;;;2.58;;
26223;SDS011;14820;48.682;8.890;2022-09-14T08:28:38;6.55;;;2.55;;
26223;SDS011;14820;48.682;8.890;2022-09-14T08:31:05;6.72;;;2.80;;
26223;SDS011;14820;48.682;8.890;2022-09-14T08:33:39;4.63;;;2.22;;
26223;SDS011;14820;48.682;8.890;2022-09-14T08:36:07;2.75;;;2.25;;
26223;SDS011;14820;48.682;8.890;2022-09-14T08:38:34;7.03;;;2.30;;
26223;SDS011;14820;48.682;8.890;2022-09-14T08:41:15;4.50;;;2.25;;
26223;SDS011;14820;48.682;8.890;2022-09-14T08:43:42;3.13;;;1.92;;
26223;SDS011;14820;48.682;8.890;2022-09-14T08:46:11;3.20;;;2.20;;
26223;SDS011;14820;48.682;8.890;2022-09-14T08:49:00;5.03;;;2.10;;
26223;SDS011;14820;48.682;8.890;2022-09-14T08:51:29;3.38;;;1.90;;
26223;SDS011;14820;48.682;8.890;2022-09-14T08:53:56;3.38;;;1.98;;
26223;SDS011;14820;48.682;8.890;2022-09-14T08:56:24;5.20;;;2.30;;
26223;SDS011;14820;48.682;8.890;2022-09-14T08:59:05;5.60;;;2.38;;
26223;SDS011;14820;48.682;8.890;2022-09-14T09:10:07;3.47;;;2.40;;
26223;SDS011;14820;48.682;8.890;2022-09-14T09:12:38;5.55;;;2.30;;
26223;SDS011;14820;48.682;8.890;2022-09-14T09:15:20;4.93;;;2.20;;
26223;SDS011;14820;48.682;8.890;2022-09-14T09:18:08;4.70;;;2.38;;
26223;SDS011;14820;48.682;8.890;2022-09-14T09:20:45;3.17;;;2.00;;
26223;SDS011;14820;48.682;8.890;2022-09-14T09:25:48;4.07;;;2.13;;
26223;SDS011;14820;48.682;8.890;2022-09-14T09:28:22;3.47;;;1.98;;
26223;SDS011;14820;48.682;8.890;2022-09-14T09:30:51;6.22;;;2.22;;
26223;SDS011;14820;48.682;8.890;2022-09-14T09:33:22;4.63;;;2.45;;
26223;SDS011;14820;48.682;8.890;2022-09-14T09:35:49;5.70;;;2.35;;
26223;SDS011;14820;48.682;8.890;2022-09-14T09:38:17;6.32;;;2.45;;
26223;SDS011;14820;48.682;8.890;2022-09-14T09:40:50;6.78;;;2.50;;
26223;SDS011;14820;48.682;8.890;2022-09-14T09:43:19;3.10;;;2.08;;
26223;SDS011;14820;48.682;8.890;2022-09-14T09:48:26;5.05;;;2.00;;
26223;SDS011;14820;48.682;8.890;2022-09-14T09:51:03;3.83;;;2.00;;
26223;SDS011;14820;48.682;8.890;2022-09-14T09:53:33;5.50;;;2.58;;
26223;SDS011;14820;48.682;8.890;2022-09-14T09:56:02;4.93;;;2.15;;
26223;SDS011;14820;48.682;8.890;2022-09-14T10:00:59;3.50;;;2.20;;
26223;SDS011;14820;48.682;8.890;2022-09-14T10:03:35;8.57;;;2.10;;
26223;SDS011;14820;48.682;8.890;2022-09-14T10:06:03;5.40;;;2.13;;
26223;SDS011;14820;48.682;8.890;2022-09-14T10:08:38;3.38;;;1.88;;
26223;SDS011;14820;48.682;8.890;2022-09-14T10:11:05;4.03;;;2.00;;
26223;SDS011;14820;48.682;8.890;2022-09-14T10:13:50;2.97;;;1.75;;
26223;SDS011;14820;48.682;8.890;2022-09-14T10:16:17;3.20;;;1.95;;
26223;SDS011;14820;48.682;8.890;2022-09-14T10:18:48;2.75;;;1.85;;
26223;SDS011;14820;48.682;8.890;2022-09-14T10:21:16;4.90;;;2.10;;
26223;SDS011;14820;48.682;8.890;2022-09-14T10:24:01;3.75;;;1.83;;
26223;SDS011;14820;48.682;8.890;2022-09-14T10:26:39;3.50;;;1.90;;
26223;SDS011;14820;48.682;8.890;2022-09-14T10:29:18;3.15;;;1.73;;
26223;SDS011;14820;48.682;8.890;2022-09-14T10:31:51;3.30;;;1.80;;
26223;SDS011;14820;48.682;8.890;2022-09-14T10:34:21;3.97;;;2.08;;
26223;SDS011;14820;48.682;8.890;2022-09-14T10:36:49;3.50;;;1.98;;
26223;SDS011;14820;48.682;8.890;2022-09-14T10:42:23;4.07;;;2.17;;
26223;SDS011;14820;48.682;8.890;2022-09-14T10:47:45;4.28;;;2.00;;
26223;SDS011;14820;48.682;8.890;2022-09-14T10:50:46;6.63;;;2.35;;
26223;SDS011;14820;48.682;8.890;2022-09-14T10:56:22;2.67;;;1.67;;
26223;SDS011;14820;48.682;8.890;2022-09-14T11:01:49;8.40;;;2.00;;
26223;SDS011;14820;48.682;8.890;2022-09-14T11:07:28;3.17;;;1.70;;
26223;SDS011;14820;48.682;8.890;2022-09-14T11:10:25;5.05;;;2.28;;
26223;SDS011;14820;48.682;8.890;2022-09-14T11:13:24;4.72;;;2.35;;
26223;SDS011;14820;48.682;8.890;2022-09-14T11:25:20;2.33;;;1.88;;
26223;SDS011;14820;48.682;8.890;2022-09-14T11:32:41;2.97;;;1.70;;
26223;SDS011;14820;48.682;8.890;2022-09-14T11:37:50;4.18;;;1.90;;
26223;SDS011;14820;48.682;8.890;2022-09-14T11:40:28;10.07;;;1.92;;
26223;SDS011;14820;48.682;8.890;2022-09-14T11:43:20;3.20;;;1.52;;
26223;SDS011;14820;48.682;8.890;2022-09-14T11:46:10;3.90;;;1.90;;
26223;SDS011;14820;48.682;8.890;2022-09-14T11:49:23;2.08;;;1.60;;
26223;SDS011;14820;48.682;8.890;2022-09-14T11:51:49;5.97;;;1.77;;
26223;SDS011;14820;48.682;8.890;2022-09-14T11:54:20;2.83;;;1.75;;
26223;SDS011;14820;48.682;8.890;2022-09-14T11:56:48;4.68;;;1.75;;
26223;SDS011;14820;48.682;8.890;2022-09-14T12:13:16;5.70;;;1.70;;
26223;SDS011;14820;48.682;8.890;2022-09-14T12:15:44;3.40;;;1.88;;
26223;SDS011;14820;48.682;8.890;2022-09-14T12:23:30;4.30;;;2.00;;
26223;SDS011;14820;48.682;8.890;2022-09-14T12:28:47;10.80;;;2.50;;
26223;SDS011;14820;48.682;8.890;2022-09-14T12:31:31;5.13;;;1.85;;
26223;SDS011;14820;48.682;8.890;2022-09-14T12:34:12;6.55;;;1.75;;
26223;SDS011;14820;48.682;8.890;2022-09-14T12:47:36;4.97;;;2.00;;
26223;SDS011;14820;48.682;8.890;2022-09-14T12:49:56;5.22;;;1.83;;
26223;SDS011;14820;48.682;8.890;2022-09-14T12:52:38;3.45;;;1.83;;
26223;SDS011;14820;48.682;8.890;2022-09-14T12:55:39;5.43;;;2.10;;
26223;SDS011;14820;48.682;8.890;2022-09-14T12:58:23;4.68;;;2.38;;
26223;SDS011;14820;48.682;8.890;2022-09-14T13:03:56;3.47;;;1.90;;
26223;SDS011;14820;48.682;8.890;2022-09-14T13:06:23;3.35;;;2.00;;
26223;SDS011;14820;48.682;8.890;2022-09-14T13:08:55;5.03;;;1.90;;
26223;SDS011;14820;48.682;8.890;2022-09-14T13:11:23;8.73;;;2.17;;
26223;SDS011;14820;48.682;8.890;2022-09-14T13:13:59;3.80;;;2.03;;
26223;SDS011;14820;48.682;8.890;2022-09-14T13:16:33;3.05;;;1.88;;
26223;SDS011;14820;48.682;8.890;2022-09-14T13:19:05;4.22;;;1.70;;
26223;SDS011;14820;48.682;8.890;2022-09-14T13:21:44;7.93;;;2.05;;
26223;SDS011;14820;48.682;8.890;2022-09-14T13:24:21;7.50;;;2.20;;
26223;SDS011;14820;48.682;8.890;2022-09-14T13:26:57;6.05;;;2.30;;
26223;SDS011;14820;48.682;8.890;2022-09-14T13:29:25;6.47;;;2.10;;
26223;SDS011;14820;48.682;8.890;2022-09-14T13:31:52;5.95;;;1.95;;
26223;SDS011;14820;48.682;8.890;2022-09-14T13:34:21;2.85;;;1.88;;
26223;SDS011;14820;48.682;8.890;2022-09-14T13:36:49;2.00;;;1.58;;
26223;SDS011;14820;48.682;8.890;2022-09-14T13:39:29;3.67;;;1.70;;
26223;SDS011;14820;48.682;8.890;2022-09-14T13:41:58;4.95;;;1.88;;
26223;SDS011;14820;48.682;8.890;2022-09-14T13:44:29;4.53;;;1.70;;
26223;SDS011;14820;48.682;8.890;2022-09-14T13:46:58;3.60;;;1.60;;
26223;SDS011;14820;48.682;8.890;2022-09-14T13:49:27;2.30;;;1.63;;
26223;SDS011;14820;48.682;8.890;2022-09-14T13:52:15;5.90;;;1.63;;
26223;SDS011;14820;48.682;8.890;2022-09-14T13:54:43;4.53;;;1.80;;
26223;SDS011;14820;48.682;8.890;2022-09-14T13:57:14;2.28;;;1.60;;
26223;SDS011;14820;48.682;8.890;2022-09-14T14:03:02;2.70;;;1.30;;
26223;SDS011;14820;48.682;8.890;2022-09-14T14:05:33;3.63;;;1.40;;
26223;SDS011;14820;48.682;8.890;2022-09-14T14:08:04;2.20;;;1.30;;
26223;SDS011;14820;48.682;8.890;2022-09-14T14:10:47;3.58;;;1.30;;
26223;SDS011;14820;48.682;8.890;2022-09-14T14:13:23;3.05;;;1.33;;
26223;SDS011;14820;48.682;8.890;2022-09-14T14:15:50;1.52;;;1.30;;
26223;SDS011;14820;48.682;8.890;2022-09-14T14:18:30;4.32;;;1.13;;
26223;SDS011;14820;48.682;8.890;2022-09-14T14:21:10;4.53;;;1.15;;
26223;SDS011;14820;48.682;8.890;2022-09-14T14:23:40;4.07;;;1.17;;
26223;SDS011;14820;48.682;8.890;2022-09-14T14:26:08;1.95;;;1.10;;
26223;SDS011;14820;48.682;8.890;2022-09-14T14:28:38;4.35;;;1.10;;
26223;SDS011;14820;48.682;8.890;2022-09-14T14:31:05;1.50;;;0.95;;
26223;SDS011;14820;48.682;8.890;2022-09-14T14:33:42;1.10;;;0.98;;
26223;SDS011;14820;48.682;8.890;2022-09-14T14:38:39;1.13;;;0.90;;
26223;SDS011;14820;48.682;8.890;2022-09-14T14:41:09;1.23;;;0.90;;
26223;SDS011;14820;48.682;8.890;2022-09-14T14:43:38;4.25;;;1.00;;
26223;SDS011;14820;48.682;8.890;2022-09-14T14:46:05;3.65;;;1.10;;
26223;SDS011;14820;48.682;8.890;2022-09-14T14:48:31;1.45;;;0.90;;
26223;SDS011;14820;48.682;8.890;2022-09-14T14:50:57;2.08;;;1.00;;
26223;SDS011;14820;48.682;8.890;2022-09-14T14:53:23;3.05;;;1.13;;
26223;SDS011;14820;48.682;8.890;2022-09-14T14:55:49;1.73;;;0.90;;
26223;SDS011;14820;48.682;8.890;2022-09-14T14:58:16;3.53;;;1.00;;
26223;SDS011;14820;48.682;8.890;2022-09-14T15:00:43;1.27;;;0.82;;
26223;SDS011;14820;48.682;8.890;2022-09-14T15:03:09;3.78;;;1.00;;
26223;SDS011;14820;48.682;8.890;2022-09-14T15:05:38;2.83;;;0.90;;
26223;SDS011;14820;48.682;8.890;2022-09-14T15:08:05;1.50;;;0.80;;
26223;SDS011;14820;48.682;8.890;2022-09-14T15:10:30;1.20;;;0.85;;
26223;SDS011;14820;48.682;8.890;2022-09-14T15:12:56;0.75;;;0.60;;
26223;SDS011;14820;48.682;8.890;2022-09-14T15:15:23;1.48;;;0.70;;
26223;SDS011;14820;48.682;8.890;2022-09-14T15:17:50;1.05;;;0.70;;
26223;SDS011;14820;48.682;8.890;2022-09-14T15:20:17;2.65;;;0.70;;
26223;SDS011;14820;48.682;8.890;2022-09-14T15:22:43;1.30;;;0.77;;
26223;SDS011;14820;48.682;8.890;2022-09-14T15:25:10;1.23;;;0.80;;
26223;SDS011;14820;48.682;8.890;2022-09-14T15:27:37;0.70;;;0.63;;
26223;SDS011;14820;48.682;8.890;2022-09-14T15:30:04;2.05;;;0.80;;
26223;SDS011;14820;48.682;8.890;2022-09-14T15:32:31;0.98;;;0.90;;
26223;SDS011;14820;48.682;8.890;2022-09-14T15:34:57;1.63;;;0.95;;
26223;SDS011;14820;48.682;8.890;2022-09-14T15:37:22;1.23;;;0.90;;
26223;SDS011;14820;48.682;8.890;2022-09-14T15:39:48;1.33;;;1.10;;
26223;SDS011;14820;48.682;8.890;2022-09-14T15:42:17;3.40;;;1.00;;
26223;SDS011;14820;48.682;8.890;2022-09-14T15:44:44;0.85;;;0.80;;
26223;SDS011;14820;48.682;8.890;2022-09-14T15:47:10;1.55;;;0.90;;
26223;SDS011;14820;48.682;8.890;2022-09-14T15:49:38;2.50;;;1.05;;
26223;SDS011;14820;48.682;8.890;2022-09-14T15:52:05;3.63;;;1.00;;
26223;SDS011;14820;48.682;8.890;2022-09-14T15:54:32;2.45;;;1.10;;
26223;SDS011;14820;48.682;8.890;2022-09-14T15:57:01;1.20;;;0.95;;
26223;SDS011;14820;48.682;8.890;2022-09-14T15:59:27;2.53;;;1.00;;
26223;SDS011;14820;48.682;8.890;2022-09-14T16:01:53;1.60;;;0.90;;
26223;SDS011;14820;48.682;8.890;2022-09-14T16:04:19;3.22;;;1.20;;
26223;SDS011;14820;48.682;8.890;2022-09-14T16:06:45;4.93;;;1.13;;
26223;SDS011;14820;48.682;8.890;2022-09-14T16:09:11;1.33;;;0.90;;
26223;SDS011;14820;48.682;8.890;2022-09-14T16:11:38;2.45;;;1.20;;
26223;SDS011;14820;48.682;8.890;2022-09-14T16:14:05;6.15;;;1.50;;
26223;SDS011;14820;48.682;8.890;2022-09-14T16:16:32;1.30;;;1.00;;
26223;SDS011;14820;48.682;8.890;2022-09-14T16:19:05;6.03;;;1.00;;
26223;SDS011;14820;48.682;8.890;2022-09-14T16:21:35;1.88;;;1.00;;
26223;SDS011;14820;48.682;8.890;2022-09-14T16:24:03;2.40;;;0.98;;
26223;SDS011;14820;48.682;8.890;2022-09-14T16:26:32;3.55;;;0.90;;
26223;SDS011;14820;48.682;8.890;2022-09-14T16:28:59;1.52;;;1.05;;
26223;SDS011;14820;48.682;8.890;2022-09-14T16:31:25;2.92;;;1.10;;
26223;SDS011;14820;48.682;8.890;2022-09-14T16:33:53;2.85;;;1.00;;
26223;SDS011;14820;48.682;8.890;2022-09-14T16:36:21;4.63;;;1.02;;
26223;SDS011;14820;48.682;8.890;2022-09-14T16:38:52;3.38;;;1.15;;
26223;SDS011;14820;48.682;8.890;2022-09-14T16:41:20;1.98;;;1.23;;
26223;SDS011;14820;48.682;8.890;2022-09-14T16:43:45;1.45;;;1.10;;
26223;SDS011;14820;48.682;8.890;2022-09-14T16:46:15;2.83;;;1.45;;
26223;SDS011;14820;48.682;8.890;2022-09-14T16:48:43;1.95;;;1.20;;
26223;SDS011;14820;48.682;8.890;2022-09-14T16:51:12;3.88;;;1.13;;
26223;SDS011;14820;48.682;8.890;2022-09-14T16:53:39;3.33;;;1.27;;
26223;SDS011;14820;48.682;8.890;2022-09-14T16:56:10;4.05;;;1.35;;